sensor_id;sensor_type;location;lat;lon;timestamp;temperature;humidity
74488;DHT22;63019;51.080;13.642;2022-11-25T00:00:03;6.70;99.90
74488;DHT22;63019;51.080;13.642;2022-11-25T00:01:09;6.70;99.90
74488;DHT22;63019;51.080;13.642;2022-11-25T00:02:12;6.70;99.90
74488;DHT22;63019;51.080;13.642;2022-11-25T00:03:14;6.70;99.90
74488;DHT22;63019;51.080;13.642;2022-11-25T00:04:16;6.70;99.90
74488;DHT22;63019;51.080;13.642;2022-11-25T00:05:18;6.70;99.90
74488;DHT22;63019;51.080;13.642;2022-11-25T00:06:23;6.70;99.90
74488;DHT22;63019;51.080;13.642;2022-11-25T00:07:25;6.70;99.90
74488;DHT22;63019;51.080;13.642;2022-11-25T00:08:27;6.70;99.90
74488;DHT22;63019;51.080;13.642;2022-11-25T00:09:29;6.70;99.90
74488;DHT22;63019;51.080;13.642;2022-11-25T00:10:30;6.70;99.90
74488;DHT22;63019;51.080;13.642;2022-11-25T00:11:37;6.70;99.90
74488;DHT22;63019;51.080;13.642;2022-11-25T00:12:39;6.70;99.90
74488;DHT22;63019;51.080;13.642;2022-11-25T00:13:42;6.70;99.90
74488;DHT22;63019;51.080;13.642;2022-11-25T00:14:44;6.70;99.90
74488;DHT22;63019;51.080;13.642;2022-11-25T00:15:46;6.70;99.90
74488;DHT22;63019;51.080;13.642;2022-11-25T00:16:47;6.70;99.90
74488;DHT22;63019;51.080;13.642;2022-11-25T00:17:50;6.70;99.90
74488;DHT22;63019;51.080;13.642;2022-11-25T00:18:54;6.70;99.90
74488;DHT22;63019;51.080;13.642;2022-11-25T00:19:56;6.70;99.90
74488;DHT22;63019;51.080;13.642;2022-11-25T00:21:03;6.70;99.90
74488;DHT22;63019;51.080;13.642;2022-11-25T00:22:05;6.70;99.90
74488;DHT22;63019;51.080;13.642;2022-11-25T00:23:07;6.70;99.90
74488;DHT22;63019;51.080;13.642;2022-11-25T00:24:11;6.70;99.90
74488;DHT22;63019;51.080;13.642;2022-11-25T00:25:13;6.70;99.90
74488;DHT22;63019;51.080;13.642;2022-11-25T00:26:15;6.60;99.90
74488;DHT22;63019;51.080;13.642;2022-11-25T00:27:17;6.70;99.90
74488;DHT22;63019;51.080;13.642;2022-11-25T00:28:19;6.60;99.90
74488;DHT22;63019;51.080;13.642;2022-11-25T00:29:21;6.60;99.90
74488;DHT22;63019;51.080;13.642;2022-11-25T00:30:23;6.60;99.90
74488;DHT22;63019;51.080;13.642;2022-11-25T00:31:27;6.60;99.90
74488;DHT22;63019;51.080;13.642;2022-11-25T00:32:29;6.60;99.90
74488;DHT22;63019;51.080;13.642;2022-11-25T00:33:31;6.60;99.90
74488;DHT22;63019;51.080;13.642;2022-11-25T00:34:32;6.60;99.90
74488;DHT22;63019;51.080;13.642;2022-11-25T00:35:35;6.60;99.90
74488;DHT22;63019;51.080;13.642;2022-11-25T00:36:37;6.60;99.90
74488;DHT22;63019;51.080;13.642;2022-11-25T00:37:38;6.60;99.90
74488;DHT22;63019;51.080;13.642;2022-11-25T00:38:40;6.60;99.90
74488;DHT22;63019;51.080;13.642;2022-11-25T00:39:42;6.60;99.90
74488;DHT22;63019;51.080;13.642;2022-11-25T00:40:44;6.60;99.90
74488;DHT22;63019;51.080;13.642;2022-11-25T00:42:06;6.60;99.90
74488;DHT22;63019;51.080;13.642;2022-11-25T00:43:26;6.60;99.90
74488;DHT22;63019;51.080;13.642;2022-11-25T00:44:46;6.50;99.90
74488;DHT22;63019;51.080;13.642;2022-11-25T00:45:48;6.50;99.90
74488;DHT22;63019;51.080;13.642;2022-11-25T00:46:50;6.50;99.90
74488;DHT22;63019;51.080;13.642;2022-11-25T00:47:52;6.50;99.90
74488;DHT22;63019;51.080;13.642;2022-11-25T00:48:54;6.60;99.90
74488;DHT22;63019;51.080;13.642;2022-11-25T00:49:56;6.50;99.90
74488;DHT22;63019;51.080;13.642;2022-11-25T00:50:57;6.60;99.90
74488;DHT22;63019;51.080;13.642;2022-11-25T00:51:59;6.60;99.90
74488;DHT22;63019;51.080;13.642;2022-11-25T00:53:01;6.60;99.90
74488;DHT22;63019;51.080;13.642;2022-11-25T00:54:03;6.60;99.90
74488;DHT22;63019;51.080;13.642;2022-11-25T00:55:05;6.60;99.90
74488;DHT22;63019;51.080;13.642;2022-11-25T00:56:07;6.60;99.90
74488;DHT22;63019;51.080;13.642;2022-11-25T00:57:16;6.60;99.90
74488;DHT22;63019;51.080;13.642;2022-11-25T00:58:19;6.60;99.90
74488;DHT22;63019;51.080;13.642;2022-11-25T00:59:20;6.60;99.90
74488;DHT22;63019;51.080;13.642;2022-11-25T01:00:22;6.60;99.90
74488;DHT22;63019;51.080;13.642;2022-11-25T01:01:24;6.60;99.90
74488;DHT22;63019;51.080;13.642;2022-11-25T01:02:26;6.60;99.90
74488;DHT22;63019;51.080;13.642;2022-11-25T01:03:28;6.60;99.90
74488;DHT22;63019;51.080;13.642;2022-11-25T01:04:30;6.60;99.90
74488;DHT22;63019;51.080;13.642;2022-11-25T01:05:32;6.50;99.90
74488;DHT22;63019;51.080;13.642;2022-11-25T01:06:35;6.50;99.90
74488;DHT22;63019;51.080;13.642;2022-11-25T01:07:36;6.50;99.90
74488;DHT22;63019;51.080;13.642;2022-11-25T01:08:38;6.50;99.90
74488;DHT22;63019;51.080;13.642;2022-11-25T01:09:40;6.50;99.90
74488;DHT22;63019;51.080;13.642;2022-11-25T01:10:42;6.50;99.90
74488;DHT22;63019;51.080;13.642;2022-11-25T01:11:44;6.40;99.90
74488;DHT22;63019;51.080;13.642;2022-11-25T01:12:46;6.40;99.90
74488;DHT22;63019;51.080;13.642;2022-11-25T01:13:49;6.40;99.90
74488;DHT22;63019;51.080;13.642;2022-11-25T01:14:51;6.40;99.90
74488;DHT22;63019;51.080;13.642;2022-11-25T01:15:52;6.30;99.90
74488;DHT22;63019;51.080;13.642;2022-11-25T01:16:54;6.30;99.90
74488;DHT22;63019;51.080;13.642;2022-11-25T01:17:56;6.30;99.90
74488;DHT22;63019;51.080;13.642;2022-11-25T01:18:58;6.30;99.90
74488;DHT22;63019;51.080;13.642;2022-11-25T01:20:01;6.20;99.90
74488;DHT22;63019;51.080;13.642;2022-11-25T01:21:11;6.20;99.90
74488;DHT22;63019;51.080;13.642;2022-11-25T01:22:13;6.10;99.90
74488;DHT22;63019;51.080;13.642;2022-11-25T01:23:15;6.10;99.90
74488;DHT22;63019;51.080;13.642;2022-11-25T01:24:17;6.10;99.90
74488;DHT22;63019;51.080;13.642;2022-11-25T01:25:19;6.10;99.90
74488;DHT22;63019;51.080;13.642;2022-11-25T01:26:24;6.10;99.90
74488;DHT22;63019;51.080;13.642;2022-11-25T01:27:25;6.10;99.90
74488;DHT22;63019;51.080;13.642;2022-11-25T01:28:27;6.10;99.90
74488;DHT22;63019;51.080;13.642;2022-11-25T01:29:29;6.10;99.90
74488;DHT22;63019;51.080;13.642;2022-11-25T01:30:31;6.10;99.90
74488;DHT22;63019;51.080;13.642;2022-11-25T01:31:38;6.10;99.90
74488;DHT22;63019;51.080;13.642;2022-11-25T01:32:40;6.10;99.90
74488;DHT22;63019;51.080;13.642;2022-11-25T01:33:43;6.00;99.90
74488;DHT22;63019;51.080;13.642;2022-11-25T01:34:45;6.10;99.90
74488;DHT22;63019;51.080;13.642;2022-11-25T01:35:47;6.10;99.90
74488;DHT22;63019;51.080;13.642;2022-11-25T01:36:49;6.10;99.90
74488;DHT22;63019;51.080;13.642;2022-11-25T01:37:51;6.10;99.90
74488;DHT22;63019;51.080;13.642;2022-11-25T01:38:58;6.10;99.90
74488;DHT22;63019;51.080;13.642;2022-11-25T01:40:00;6.00;99.90
74488;DHT22;63019;51.080;13.642;2022-11-25T01:41:02;6.00;99.90
74488;DHT22;63019;51.080;13.642;2022-11-25T01:42:05;6.00;99.90
74488;DHT22;63019;51.080;13.642;2022-11-25T01:43:12;6.10;99.90
74488;DHT22;63019;51.080;13.642;2022-11-25T01:44:23;6.10;99.90
74488;DHT22;63019;51.080;13.642;2022-11-25T01:45:32;6.10;99.90
74488;DHT22;63019;51.080;13.642;2022-11-25T01:48:31;6.10;99.90
74488;DHT22;63019;51.080;13.642;2022-11-25T01:50:52;6.10;99.90
74488;DHT22;63019;51.080;13.642;2022-11-25T01:53:00;6.10;99.90
74488;DHT22;63019;51.080;13.642;2022-11-25T01:54:05;6.10;99.90
74488;DHT22;63019;51.080;13.642;2022-11-25T01:56:15;6.00;99.90
74488;DHT22;63019;51.080;13.642;2022-11-25T01:57:25;6.00;99.90
74488;DHT22;63019;51.080;13.642;2022-11-25T01:58:30;6.00;99.90
74488;DHT22;63019;51.080;13.642;2022-11-25T01:59:37;6.00;99.90
74488;DHT22;63019;51.080;13.642;2022-11-25T02:00:40;6.00;99.90
74488;DHT22;63019;51.080;13.642;2022-11-25T02:01:44;6.00;99.90
74488;DHT22;63019;51.080;13.642;2022-11-25T02:02:49;6.00;99.90
74488;DHT22;63019;51.080;13.642;2022-11-25T02:03:53;6.00;99.90
74488;DHT22;63019;51.080;13.642;2022-11-25T02:04:57;6.00;99.90
74488;DHT22;63019;51.080;13.642;2022-11-25T02:06:12;6.00;99.90
74488;DHT22;63019;51.080;13.642;2022-11-25T02:07:33;6.00;99.90
74488;DHT22;63019;51.080;13.642;2022-11-25T02:08:36;6.00;99.90
74488;DHT22;63019;51.080;13.642;2022-11-25T02:09:41;6.10;99.90
74488;DHT22;63019;51.080;13.642;2022-11-25T02:10:43;6.10;99.90
74488;DHT22;63019;51.080;13.642;2022-11-25T02:11:45;6.10;99.90
74488;DHT22;63019;51.080;13.642;2022-11-25T02:12:48;6.00;99.90
74488;DHT22;63019;51.080;13.642;2022-11-25T02:13:50;6.00;99.90
74488;DHT22;63019;51.080;13.642;2022-11-25T02:14:53;6.00;99.90
74488;DHT22;63019;51.080;13.642;2022-11-25T02:15:56;6.00;99.90
74488;DHT22;63019;51.080;13.642;2022-11-25T02:16:59;6.00;99.90
74488;DHT22;63019;51.080;13.642;2022-11-25T02:18:02;6.00;99.90
74488;DHT22;63019;51.080;13.642;2022-11-25T02:19:06;6.00;99.90
74488;DHT22;63019;51.080;13.642;2022-11-25T02:20:13;6.00;99.90
74488;DHT22;63019;51.080;13.642;2022-11-25T02:21:21;6.00;99.90
74488;DHT22;63019;51.080;13.642;2022-11-25T02:23:56;6.00;99.90
74488;DHT22;63019;51.080;13.642;2022-11-25T02:25:10;6.00;99.90
74488;DHT22;63019;51.080;13.642;2022-11-25T02:26:12;6.00;99.90
74488;DHT22;63019;51.080;13.642;2022-11-25T02:27:14;6.00;99.90
74488;DHT22;63019;51.080;13.642;2022-11-25T02:29:20;6.00;99.90
74488;DHT22;63019;51.080;13.642;2022-11-25T02:30:21;5.90;99.90
74488;DHT22;63019;51.080;13.642;2022-11-25T02:31:23;6.00;99.90
74488;DHT22;63019;51.080;13.642;2022-11-25T02:32:25;5.90;99.90
74488;DHT22;63019;51.080;13.642;2022-11-25T02:33:27;5.90;99.90
74488;DHT22;63019;51.080;13.642;2022-11-25T02:34:29;5.90;99.90
74488;DHT22;63019;51.080;13.642;2022-11-25T02:36:35;5.90;99.90
74488;DHT22;63019;51.080;13.642;2022-11-25T02:37:37;5.90;99.90
74488;DHT22;63019;51.080;13.642;2022-11-25T02:39:45;5.90;99.90
74488;DHT22;63019;51.080;13.642;2022-11-25T02:41:05;5.90;99.90
74488;DHT22;63019;51.080;13.642;2022-11-25T02:42:08;5.80;99.90
74488;DHT22;63019;51.080;13.642;2022-11-25T02:43:11;5.80;99.90
74488;DHT22;63019;51.080;13.642;2022-11-25T02:44:13;5.80;99.90
74488;DHT22;63019;51.080;13.642;2022-11-25T02:45:20;5.80;99.90
74488;DHT22;63019;51.080;13.642;2022-11-25T02:46:25;5.80;99.90
74488;DHT22;63019;51.080;13.642;2022-11-25T02:47:27;5.80;99.90
74488;DHT22;63019;51.080;13.642;2022-11-25T02:48:33;5.80;99.90
74488;DHT22;63019;51.080;13.642;2022-11-25T02:49:55;5.70;99.90
74488;DHT22;63019;51.080;13.642;2022-11-25T02:50:57;5.70;99.90
74488;DHT22;63019;51.080;13.642;2022-11-25T02:51:59;5.70;99.90
74488;DHT22;63019;51.080;13.642;2022-11-25T02:53:01;5.70;99.90
74488;DHT22;63019;51.080;13.642;2022-11-25T02:54:02;5.70;99.90
74488;DHT22;63019;51.080;13.642;2022-11-25T02:55:05;5.70;99.90
74488;DHT22;63019;51.080;13.642;2022-11-25T02:56:07;5.60;99.90
74488;DHT22;63019;51.080;13.642;2022-11-25T02:57:09;5.60;99.90
74488;DHT22;63019;51.080;13.642;2022-11-25T02:58:12;5.60;99.90
74488;DHT22;63019;51.080;13.642;2022-11-25T02:59:14;5.60;99.90
74488;DHT22;63019;51.080;13.642;2022-11-25T03:00:16;5.60;99.90
74488;DHT22;63019;51.080;13.642;2022-11-25T03:01:18;5.60;99.90
74488;DHT22;63019;51.080;13.642;2022-11-25T03:02:21;5.50;99.90
74488;DHT22;63019;51.080;13.642;2022-11-25T03:03:23;5.50;99.90
74488;DHT22;63019;51.080;13.642;2022-11-25T03:04:25;5.50;99.90
74488;DHT22;63019;51.080;13.642;2022-11-25T03:05:27;5.50;99.90
74488;DHT22;63019;51.080;13.642;2022-11-25T03:06:29;5.60;99.90
74488;DHT22;63019;51.080;13.642;2022-11-25T03:07:31;5.50;99.90
74488;DHT22;63019;51.080;13.642;2022-11-25T03:08:33;5.50;99.90
74488;DHT22;63019;51.080;13.642;2022-11-25T03:09:35;5.50;99.90
74488;DHT22;63019;51.080;13.642;2022-11-25T03:10:37;5.50;99.90
74488;DHT22;63019;51.080;13.642;2022-11-25T03:11:39;5.50;99.90
74488;DHT22;63019;51.080;13.642;2022-11-25T03:13:00;5.50;99.90
74488;DHT22;63019;51.080;13.642;2022-11-25T03:14:02;5.50;99.90
74488;DHT22;63019;51.080;13.642;2022-11-25T03:15:04;5.50;99.90
74488;DHT22;63019;51.080;13.642;2022-11-25T03:16:06;5.50;99.90
74488;DHT22;63019;51.080;13.642;2022-11-25T03:17:08;5.50;99.90
74488;DHT22;63019;51.080;13.642;2022-11-25T03:18:10;5.50;99.90
74488;DHT22;63019;51.080;13.642;2022-11-25T03:19:12;5.50;99.90
74488;DHT22;63019;51.080;13.642;2022-11-25T03:20:13;5.50;99.90
74488;DHT22;63019;51.080;13.642;2022-11-25T03:21:15;5.50;99.90
74488;DHT22;63019;51.080;13.642;2022-11-25T03:22:17;5.50;99.90
74488;DHT22;63019;51.080;13.642;2022-11-25T03:23:19;5.50;99.90
74488;DHT22;63019;51.080;13.642;2022-11-25T03:24:21;5.40;99.90
74488;DHT22;63019;51.080;13.642;2022-11-25T03:25:23;5.40;99.90
74488;DHT22;63019;51.080;13.642;2022-11-25T03:26:25;5.40;99.90
74488;DHT22;63019;51.080;13.642;2022-11-25T03:27:27;5.40;99.90
74488;DHT22;63019;51.080;13.642;2022-11-25T03:28:31;5.40;99.90
74488;DHT22;63019;51.080;13.642;2022-11-25T03:29:32;5.40;99.90
74488;DHT22;63019;51.080;13.642;2022-11-25T03:30:34;5.40;99.90
74488;DHT22;63019;51.080;13.642;2022-11-25T03:31:36;5.40;99.90
74488;DHT22;63019;51.080;13.642;2022-11-25T03:32:38;5.40;99.90
74488;DHT22;63019;51.080;13.642;2022-11-25T03:33:39;5.40;99.90
74488;DHT22;63019;51.080;13.642;2022-11-25T03:34:41;5.40;99.90
74488;DHT22;63019;51.080;13.642;2022-11-25T03:35:43;5.40;99.90
74488;DHT22;63019;51.080;13.642;2022-11-25T03:36:45;5.50;99.90
74488;DHT22;63019;51.080;13.642;2022-11-25T03:37:47;5.50;99.90
74488;DHT22;63019;51.080;13.642;2022-11-25T03:38:48;5.50;99.90
74488;DHT22;63019;51.080;13.642;2022-11-25T03:39:50;5.50;99.90
74488;DHT22;63019;51.080;13.642;2022-11-25T03:40:52;5.40;99.90
74488;DHT22;63019;51.080;13.642;2022-11-25T03:41:54;5.50;99.90
74488;DHT22;63019;51.080;13.642;2022-11-25T03:42:55;5.40;99.90
74488;DHT22;63019;51.080;13.642;2022-11-25T03:43:57;5.40;99.90
74488;DHT22;63019;51.080;13.642;2022-11-25T03:44:59;5.40;99.90
74488;DHT22;63019;51.080;13.642;2022-11-25T03:46:01;5.40;99.90
74488;DHT22;63019;51.080;13.642;2022-11-25T03:47:03;5.40;99.90
74488;DHT22;63019;51.080;13.642;2022-11-25T03:48:05;5.40;99.90
74488;DHT22;63019;51.080;13.642;2022-11-25T03:49:07;5.40;99.90
74488;DHT22;63019;51.080;13.642;2022-11-25T03:50:10;5.40;99.90
74488;DHT22;63019;51.080;13.642;2022-11-25T03:51:13;5.40;99.90
74488;DHT22;63019;51.080;13.642;2022-11-25T03:52:14;5.40;99.90
74488;DHT22;63019;51.080;13.642;2022-11-25T03:53:16;5.40;99.90
74488;DHT22;63019;51.080;13.642;2022-11-25T03:54:18;5.40;99.90
74488;DHT22;63019;51.080;13.642;2022-11-25T03:55:20;5.40;99.90
74488;DHT22;63019;51.080;13.642;2022-11-25T03:56:22;5.40;99.90
74488;DHT22;63019;51.080;13.642;2022-11-25T03:57:23;5.40;99.90
74488;DHT22;63019;51.080;13.642;2022-11-25T03:58:25;5.30;99.90
74488;DHT22;63019;51.080;13.642;2022-11-25T03:59:27;5.30;99.90
74488;DHT22;63019;51.080;13.642;2022-11-25T04:00:29;5.30;99.90
74488;DHT22;63019;51.080;13.642;2022-11-25T04:01:31;5.30;99.90
74488;DHT22;63019;51.080;13.642;2022-11-25T04:02:33;5.30;99.90
74488;DHT22;63019;51.080;13.642;2022-11-25T04:03:35;5.40;99.90
74488;DHT22;63019;51.080;13.642;2022-11-25T04:04:37;5.30;99.90
74488;DHT22;63019;51.080;13.642;2022-11-25T04:05:40;5.30;99.90
74488;DHT22;63019;51.080;13.642;2022-11-25T04:06:42;5.30;99.90
74488;DHT22;63019;51.080;13.642;2022-11-25T04:07:44;5.40;99.90
74488;DHT22;63019;51.080;13.642;2022-11-25T04:08:46;5.40;99.90
74488;DHT22;63019;51.080;13.642;2022-11-25T04:09:47;5.30;99.90
74488;DHT22;63019;51.080;13.642;2022-11-25T04:10:50;5.30;99.90
74488;DHT22;63019;51.080;13.642;2022-11-25T04:11:52;5.30;99.90
74488;DHT22;63019;51.080;13.642;2022-11-25T04:13:12;5.30;99.90
74488;DHT22;63019;51.080;13.642;2022-11-25T04:14:14;5.30;99.90
74488;DHT22;63019;51.080;13.642;2022-11-25T04:15:16;5.30;99.90
74488;DHT22;63019;51.080;13.642;2022-11-25T04:16:25;5.30;99.90
74488;DHT22;63019;51.080;13.642;2022-11-25T04:17:27;5.30;99.90
74488;DHT22;63019;51.080;13.642;2022-11-25T04:18:29;5.30;99.90
74488;DHT22;63019;51.080;13.642;2022-11-25T04:19:31;5.30;99.90
74488;DHT22;63019;51.080;13.642;2022-11-25T04:20:32;5.30;99.90
74488;DHT22;63019;51.080;13.642;2022-11-25T04:21:34;5.30;99.90
74488;DHT22;63019;51.080;13.642;2022-11-25T04:22:36;5.30;99.90
74488;DHT22;63019;51.080;13.642;2022-11-25T04:23:38;5.30;99.90
74488;DHT22;63019;51.080;13.642;2022-11-25T04:24:39;5.30;99.90
74488;DHT22;63019;51.080;13.642;2022-11-25T04:25:41;5.30;99.90
74488;DHT22;63019;51.080;13.642;2022-11-25T04:26:43;5.30;99.90
74488;DHT22;63019;51.080;13.642;2022-11-25T04:27:45;5.30;99.90
74488;DHT22;63019;51.080;13.642;2022-11-25T04:28:46;5.30;99.90
74488;DHT22;63019;51.080;13.642;2022-11-25T04:29:48;5.30;99.90
74488;DHT22;63019;51.080;13.642;2022-11-25T04:30:50;5.30;99.90
74488;DHT22;63019;51.080;13.642;2022-11-25T04:31:52;5.30;99.90
74488;DHT22;63019;51.080;13.642;2022-11-25T04:32:53;5.30;99.90
74488;DHT22;63019;51.080;13.642;2022-11-25T04:33:55;5.30;99.90
74488;DHT22;63019;51.080;13.642;2022-11-25T04:34:57;5.20;99.90
74488;DHT22;63019;51.080;13.642;2022-11-25T04:35:59;5.30;99.90
74488;DHT22;63019;51.080;13.642;2022-11-25T04:37:00;5.20;99.90
74488;DHT22;63019;51.080;13.642;2022-11-25T04:38:02;5.20;99.90
74488;DHT22;63019;51.080;13.642;2022-11-25T04:39:04;5.30;99.90
74488;DHT22;63019;51.080;13.642;2022-11-25T04:40:06;5.30;99.90
74488;DHT22;63019;51.080;13.642;2022-11-25T04:41:08;5.30;99.90
74488;DHT22;63019;51.080;13.642;2022-11-25T04:42:10;5.30;99.90
74488;DHT22;63019;51.080;13.642;2022-11-25T04:43:38;5.30;99.90
74488;DHT22;63019;51.080;13.642;2022-11-25T04:44:40;5.30;99.90
74488;DHT22;63019;51.080;13.642;2022-11-25T04:45:41;5.30;99.90
74488;DHT22;63019;51.080;13.642;2022-11-25T04:47:03;5.30;99.90
74488;DHT22;63019;51.080;13.642;2022-11-25T04:48:05;5.30;99.90
74488;DHT22;63019;51.080;13.642;2022-11-25T04:49:07;5.30;99.90
74488;DHT22;63019;51.080;13.642;2022-11-25T04:50:16;5.30;99.90
74488;DHT22;63019;51.080;13.642;2022-11-25T04:51:19;5.30;99.90
74488;DHT22;63019;51.080;13.642;2022-11-25T04:52:20;5.30;99.90
74488;DHT22;63019;51.080;13.642;2022-11-25T04:53:22;5.30;99.90
74488;DHT22;63019;51.080;13.642;2022-11-25T04:54:24;5.20;99.90
74488;DHT22;63019;51.080;13.642;2022-11-25T04:55:26;5.20;99.90
74488;DHT22;63019;51.080;13.642;2022-11-25T04:56:28;5.20;99.90
74488;DHT22;63019;51.080;13.642;2022-11-25T04:57:29;5.20;99.90
74488;DHT22;63019;51.080;13.642;2022-11-25T04:58:31;5.20;99.90
74488;DHT22;63019;51.080;13.642;2022-11-25T04:59:51;5.20;99.90
74488;DHT22;63019;51.080;13.642;2022-11-25T05:00:53;5.20;99.90
74488;DHT22;63019;51.080;13.642;2022-11-25T05:01:55;5.20;99.90
74488;DHT22;63019;51.080;13.642;2022-11-25T05:02:57;5.10;99.90
74488;DHT22;63019;51.080;13.642;2022-11-25T05:03:58;5.10;99.90
74488;DHT22;63019;51.080;13.642;2022-11-25T05:05:00;5.10;99.90
74488;DHT22;63019;51.080;13.642;2022-11-25T05:06:06;5.00;99.90
74488;DHT22;63019;51.080;13.642;2022-11-25T05:07:09;5.00;99.90
74488;DHT22;63019;51.080;13.642;2022-11-25T05:08:11;5.00;99.90
74488;DHT22;63019;51.080;13.642;2022-11-25T05:09:13;5.00;99.90
74488;DHT22;63019;51.080;13.642;2022-11-25T05:10:15;5.00;99.90
74488;DHT22;63019;51.080;13.642;2022-11-25T05:11:17;4.90;99.90
74488;DHT22;63019;51.080;13.642;2022-11-25T05:12:22;4.90;99.90
74488;DHT22;63019;51.080;13.642;2022-11-25T05:13:24;4.90;99.90
74488;DHT22;63019;51.080;13.642;2022-11-25T05:14:26;4.90;99.90
74488;DHT22;63019;51.080;13.642;2022-11-25T05:15:27;4.90;99.90
74488;DHT22;63019;51.080;13.642;2022-11-25T05:16:29;4.80;99.90
74488;DHT22;63019;51.080;13.642;2022-11-25T05:17:31;4.80;99.90
74488;DHT22;63019;51.080;13.642;2022-11-25T05:18:33;4.80;99.90
74488;DHT22;63019;51.080;13.642;2022-11-25T05:19:35;4.70;99.90
74488;DHT22;63019;51.080;13.642;2022-11-25T05:20:37;4.80;99.90
74488;DHT22;63019;51.080;13.642;2022-11-25T05:21:38;4.70;99.90
74488;DHT22;63019;51.080;13.642;2022-11-25T05:22:40;4.70;99.90
74488;DHT22;63019;51.080;13.642;2022-11-25T05:23:42;4.70;99.90
74488;DHT22;63019;51.080;13.642;2022-11-25T05:24:44;4.60;99.90
74488;DHT22;63019;51.080;13.642;2022-11-25T05:25:46;4.60;99.90
74488;DHT22;63019;51.080;13.642;2022-11-25T05:26:48;4.70;99.90
74488;DHT22;63019;51.080;13.642;2022-11-25T05:27:49;4.60;99.90
74488;DHT22;63019;51.080;13.642;2022-11-25T05:28:51;4.60;99.90
74488;DHT22;63019;51.080;13.642;2022-11-25T05:29:53;4.60;99.90
74488;DHT22;63019;51.080;13.642;2022-11-25T05:30:57;4.60;99.90
74488;DHT22;63019;51.080;13.642;2022-11-25T05:31:59;4.60;99.90
74488;DHT22;63019;51.080;13.642;2022-11-25T05:33:01;4.60;99.90
74488;DHT22;63019;51.080;13.642;2022-11-25T05:34:03;4.60;99.90
74488;DHT22;63019;51.080;13.642;2022-11-25T05:35:05;4.60;99.90
74488;DHT22;63019;51.080;13.642;2022-11-25T05:36:07;4.60;99.90
74488;DHT22;63019;51.080;13.642;2022-11-25T05:37:12;4.50;99.90
74488;DHT22;63019;51.080;13.642;2022-11-25T05:38:14;4.50;99.90
74488;DHT22;63019;51.080;13.642;2022-11-25T05:39:16;4.50;99.90
74488;DHT22;63019;51.080;13.642;2022-11-25T05:40:17;4.50;99.90
74488;DHT22;63019;51.080;13.642;2022-11-25T05:41:19;4.50;99.90
74488;DHT22;63019;51.080;13.642;2022-11-25T05:42:21;4.40;99.90
74488;DHT22;63019;51.080;13.642;2022-11-25T05:43:23;4.40;99.90
74488;DHT22;63019;51.080;13.642;2022-11-25T05:44:25;4.40;99.90
74488;DHT22;63019;51.080;13.642;2022-11-25T05:45:27;4.40;99.90
74488;DHT22;63019;51.080;13.642;2022-11-25T05:46:29;4.40;99.90
74488;DHT22;63019;51.080;13.642;2022-11-25T05:47:31;4.40;99.90
74488;DHT22;63019;51.080;13.642;2022-11-25T05:48:33;4.40;99.90
74488;DHT22;63019;51.080;13.642;2022-11-25T05:49:34;4.40;99.90
74488;DHT22;63019;51.080;13.642;2022-11-25T05:50:36;4.40;99.90
74488;DHT22;63019;51.080;13.642;2022-11-25T05:51:39;4.40;99.90
74488;DHT22;63019;51.080;13.642;2022-11-25T05:52:41;4.40;99.90
74488;DHT22;63019;51.080;13.642;2022-11-25T05:53:42;4.30;99.90
74488;DHT22;63019;51.080;13.642;2022-11-25T05:54:44;4.30;99.90
74488;DHT22;63019;51.080;13.642;2022-11-25T05:55:56;4.20;99.90
74488;DHT22;63019;51.080;13.642;2022-11-25T05:56:58;4.30;99.90
74488;DHT22;63019;51.080;13.642;2022-11-25T05:58:00;4.30;99.90
74488;DHT22;63019;51.080;13.642;2022-11-25T05:59:03;4.20;99.90
74488;DHT22;63019;51.080;13.642;2022-11-25T06:00:05;4.20;99.90
74488;DHT22;63019;51.080;13.642;2022-11-25T06:01:09;4.20;99.90
74488;DHT22;63019;51.080;13.642;2022-11-25T06:02:11;4.20;99.90
74488;DHT22;63019;51.080;13.642;2022-11-25T06:03:13;4.20;99.90
74488;DHT22;63019;51.080;13.642;2022-11-25T06:04:15;4.10;99.90
74488;DHT22;63019;51.080;13.642;2022-11-25T06:05:16;4.20;99.90
74488;DHT22;63019;51.080;13.642;2022-11-25T06:06:18;4.20;99.90
74488;DHT22;63019;51.080;13.642;2022-11-25T06:07:20;4.20;99.90
74488;DHT22;63019;51.080;13.642;2022-11-25T06:08:22;4.10;99.90
74488;DHT22;63019;51.080;13.642;2022-11-25T06:09:24;4.20;99.90
74488;DHT22;63019;51.080;13.642;2022-11-25T06:10:26;4.10;99.90
74488;DHT22;63019;51.080;13.642;2022-11-25T06:11:27;4.10;99.90
74488;DHT22;63019;51.080;13.642;2022-11-25T06:12:29;4.10;99.90
74488;DHT22;63019;51.080;13.642;2022-11-25T06:13:31;4.10;99.90
74488;DHT22;63019;51.080;13.642;2022-11-25T06:14:33;4.10;99.90
74488;DHT22;63019;51.080;13.642;2022-11-25T06:15:40;4.00;99.90
74488;DHT22;63019;51.080;13.642;2022-11-25T06:16:42;4.00;99.90
74488;DHT22;63019;51.080;13.642;2022-11-25T06:17:44;3.90;99.90
74488;DHT22;63019;51.080;13.642;2022-11-25T06:18:46;3.90;99.90
74488;DHT22;63019;51.080;13.642;2022-11-25T06:19:48;3.90;99.90
74488;DHT22;63019;51.080;13.642;2022-11-25T06:20:57;3.90;99.90
74488;DHT22;63019;51.080;13.642;2022-11-25T06:21:59;3.90;99.90
74488;DHT22;63019;51.080;13.642;2022-11-25T06:23:01;3.90;99.90
74488;DHT22;63019;51.080;13.642;2022-11-25T06:24:03;3.80;99.90
74488;DHT22;63019;51.080;13.642;2022-11-25T06:25:05;3.90;99.90
74488;DHT22;63019;51.080;13.642;2022-11-25T06:26:17;3.80;99.90
74488;DHT22;63019;51.080;13.642;2022-11-25T06:27:19;3.80;99.90
74488;DHT22;63019;51.080;13.642;2022-11-25T06:28:21;3.80;99.90
74488;DHT22;63019;51.080;13.642;2022-11-25T06:29:23;3.70;99.90
74488;DHT22;63019;51.080;13.642;2022-11-25T06:30:25;3.70;99.90
74488;DHT22;63019;51.080;13.642;2022-11-25T06:31:27;3.70;99.90
74488;DHT22;63019;51.080;13.642;2022-11-25T06:32:29;3.70;99.90
74488;DHT22;63019;51.080;13.642;2022-11-25T06:33:36;3.70;99.90
74488;DHT22;63019;51.080;13.642;2022-11-25T06:34:38;3.70;99.90
74488;DHT22;63019;51.080;13.642;2022-11-25T06:35:43;3.60;99.90
74488;DHT22;63019;51.080;13.642;2022-11-25T06:36:44;3.60;99.90
74488;DHT22;63019;51.080;13.642;2022-11-25T06:37:46;3.60;99.90
74488;DHT22;63019;51.080;13.642;2022-11-25T06:38:51;3.60;99.90
74488;DHT22;63019;51.080;13.642;2022-11-25T06:39:53;3.60;99.90
74488;DHT22;63019;51.080;13.642;2022-11-25T06:41:02;3.60;99.90
74488;DHT22;63019;51.080;13.642;2022-11-25T06:42:05;3.60;99.90
74488;DHT22;63019;51.080;13.642;2022-11-25T06:43:06;3.60;99.90
74488;DHT22;63019;51.080;13.642;2022-11-25T06:44:08;3.60;99.90
74488;DHT22;63019;51.080;13.642;2022-11-25T06:45:10;3.60;99.90
74488;DHT22;63019;51.080;13.642;2022-11-25T06:46:14;3.60;99.90
74488;DHT22;63019;51.080;13.642;2022-11-25T06:47:25;3.60;99.90
74488;DHT22;63019;51.080;13.642;2022-11-25T06:48:27;3.60;99.90